createdAt,value
2017-12-20T00:00:11.643Z,16.07
2017-12-20T00:02:39.888Z,14.73
2017-12-20T00:05:08.138Z,10.30
2017-12-20T00:07:36.404Z,8.30
2017-12-20T00:10:04.685Z,6.70
2017-12-20T00:12:32.948Z,7.50
2017-12-20T00:15:01.195Z,6.00
2017-12-20T00:17:30.187Z,5.90
2017-12-20T00:19:58.904Z,7.10
2017-12-20T00:22:27.165Z,7.00
2017-12-20T00:24:56.183Z,8.43
2017-12-20T00:27:24.433Z,8.67
2017-12-20T00:29:53.431Z,8.93
2017-12-20T00:32:22.464Z,11.00
2017-12-20T00:34:51.233Z,12.40
2017-12-20T00:37:19.245Z,12.13
2017-12-20T00:39:47.258Z,12.27
2017-12-20T00:42:15.513Z,10.23
2017-12-20T00:44:43.762Z,11.00
2017-12-20T00:47:12.792Z,7.40
2017-12-20T00:49:41.021Z,7.50
2017-12-20T00:52:09.442Z,7.70
2017-12-20T00:54:37.719Z,7.10
2017-12-20T00:57:05.955Z,6.70
2017-12-20T00:59:34.233Z,5.83
2017-12-20T01:02:02.500Z,5.70
2017-12-20T01:04:31.480Z,4.33
2017-12-20T01:06:59.746Z,4.40
2017-12-20T01:09:28.755Z,3.73
2017-12-20T01:11:57.014Z,4.60
2017-12-20T01:14:25.221Z,5.20
2017-12-20T01:16:53.461Z,5.43
2017-12-20T01:19:22.504Z,5.33
2017-12-20T01:21:50.756Z,6.70
2017-12-20T01:24:19.035Z,4.90
2017-12-20T01:26:47.266Z,4.87
2017-12-20T01:29:15.502Z,4.20
2017-12-20T01:31:43.757Z,4.50
2017-12-20T01:34:12.755Z,5.87
2017-12-20T01:36:41.006Z,7.87
2017-12-20T01:39:10.058Z,6.80
2017-12-20T01:41:38.277Z,8.77
2017-12-20T01:44:07.302Z,7.30
2017-12-20T01:46:35.597Z,9.60
2017-12-20T01:49:03.919Z,10.80
2017-12-20T01:51:32.130Z,8.43
2017-12-20T01:54:00.384Z,5.40
2017-12-20T01:56:28.662Z,12.20
2017-12-20T01:58:57.097Z,10.13
2017-12-20T02:01:25.361Z,8.80
2017-12-20T02:03:54.140Z,4.77
2017-12-20T02:06:22.398Z,4.37
2017-12-20T02:08:51.405Z,5.20
2017-12-20T02:11:19.635Z,6.17
2017-12-20T02:13:47.884Z,7.57
2017-12-20T02:16:16.933Z,7.40
2017-12-20T02:18:46.778Z,5.50
2017-12-20T02:21:15.794Z,6.23
2017-12-20T02:23:44.022Z,5.10
2017-12-20T02:26:13.048Z,4.23
2017-12-20T02:28:41.289Z,5.40
2017-12-20T02:31:10.304Z,6.43
2017-12-20T02:33:38.594Z,8.17
2017-12-20T02:36:06.828Z,6.23
2017-12-20T02:38:36.894Z,5.47
2017-12-20T02:41:07.913Z,6.90
2017-12-20T02:43:37.448Z,5.20
2017-12-20T02:46:05.726Z,7.10
2017-12-20T02:48:34.024Z,6.30
2017-12-20T02:51:02.291Z,5.40
2017-12-20T02:53:30.546Z,5.30
2017-12-20T02:55:58.834Z,4.93
2017-12-20T02:58:27.093Z,5.20
2017-12-20T03:00:55.351Z,5.07
2017-12-20T03:03:24.373Z,4.20
2017-12-20T03:05:52.646Z,4.93
2017-12-20T03:08:20.916Z,4.10
2017-12-20T03:10:49.134Z,4.67
2017-12-20T03:13:17.402Z,3.73
2017-12-20T03:15:45.642Z,3.87
2017-12-20T03:18:13.974Z,4.03
2017-12-20T03:20:42.243Z,3.80
2017-12-20T03:23:10.481Z,4.23
2017-12-20T03:25:38.715Z,4.13
2017-12-20T03:28:06.953Z,4.47
2017-12-20T03:30:35.279Z,3.80
2017-12-20T03:33:03.506Z,4.20
2017-12-20T03:35:31.765Z,4.20
2017-12-20T03:38:00.032Z,4.33
2017-12-20T03:40:29.037Z,6.20
2017-12-20T03:42:57.313Z,4.70
2017-12-20T03:45:25.662Z,4.27
2017-12-20T03:47:53.899Z,3.80
2017-12-20T03:50:22.135Z,4.07
2017-12-20T03:52:50.466Z,3.33
2017-12-20T03:55:18.696Z,3.70
2017-12-20T03:57:46.945Z,2.77
2017-12-20T04:00:15.191Z,2.70
2017-12-20T04:02:43.414Z,2.80
2017-12-20T04:05:12.473Z,3.47
2017-12-20T04:07:40.713Z,2.37
2017-12-20T04:10:08.951Z,2.60
2017-12-20T04:12:37.974Z,2.60
2017-12-20T04:15:06.200Z,2.33
2017-12-20T04:17:35.805Z,2.80
2017-12-20T04:20:04.027Z,2.90
2017-12-20T04:22:33.049Z,2.30
2017-12-20T04:25:01.306Z,2.40
2017-12-20T04:27:30.323Z,2.90
2017-12-20T04:29:58.571Z,2.20
2017-12-20T04:32:27.562Z,3.87
2017-12-20T04:34:56.561Z,3.30
2017-12-20T04:37:25.573Z,3.90
2017-12-20T04:39:53.862Z,2.93
2017-12-20T04:42:22.069Z,2.37
2017-12-20T04:44:50.326Z,2.70
2017-12-20T04:47:18.568Z,5.93
2017-12-20T04:49:47.629Z,5.43
2017-12-20T04:52:15.874Z,7.73
2017-12-20T04:54:44.114Z,7.57
2017-12-20T04:57:13.134Z,6.50
2017-12-20T04:59:41.362Z,6.33
2017-12-20T05:02:09.592Z,5.50
2017-12-20T05:04:37.862Z,4.33
2017-12-20T05:07:06.822Z,3.17
2017-12-20T05:09:35.118Z,2.60
2017-12-20T05:12:04.112Z,5.00
2017-12-20T05:14:33.141Z,3.73
2017-12-20T05:17:01.398Z,2.73
2017-12-20T05:19:29.644Z,3.40
2017-12-20T05:21:58.687Z,3.13
2017-12-20T05:24:26.915Z,4.30
2017-12-20T05:26:56.103Z,4.07
2017-12-20T05:29:25.151Z,4.10
2017-12-20T05:31:53.423Z,3.20
2017-12-20T05:34:21.670Z,4.57
2017-12-20T05:36:50.687Z,4.57
2017-12-20T05:39:18.974Z,4.17
2017-12-20T05:41:47.208Z,5.30
2017-12-20T05:44:15.490Z,4.57
2017-12-20T05:46:43.699Z,4.70
2017-12-20T05:49:11.952Z,7.23
2017-12-20T05:51:40.958Z,8.10
2017-12-20T05:54:09.982Z,5.40
2017-12-20T05:56:38.216Z,8.00
2017-12-20T05:59:07.249Z,10.23
2017-12-20T06:01:35.514Z,8.60
2017-12-20T06:04:03.743Z,5.43
2017-12-20T06:06:32.003Z,5.17
2017-12-20T06:09:00.221Z,4.50
2017-12-20T06:11:29.221Z,4.70
2017-12-20T06:13:58.222Z,5.77
2017-12-20T06:16:27.230Z,9.80
2017-12-20T06:18:55.491Z,5.00
2017-12-20T06:21:23.739Z,4.40
2017-12-20T06:23:51.967Z,5.77
2017-12-20T06:26:20.202Z,6.43
2017-12-20T06:28:49.249Z,6.03
2017-12-20T06:31:17.521Z,6.00
2017-12-20T06:33:45.763Z,7.00
2017-12-20T06:36:14.774Z,6.90
2017-12-20T06:38:43.069Z,7.23
2017-12-20T06:41:11.293Z,8.70
2017-12-20T06:43:39.521Z,9.20
2017-12-20T06:46:07.791Z,12.23
2017-12-20T06:48:36.029Z,10.00
2017-12-20T06:51:05.094Z,9.00
2017-12-20T06:53:33.427Z,7.00
2017-12-20T06:56:02.434Z,7.80
2017-12-20T06:58:30.685Z,8.40
2017-12-20T07:00:59.683Z,7.93
2017-12-20T07:03:27.957Z,6.10
2017-12-20T07:05:56.993Z,6.00
2017-12-20T07:08:25.244Z,6.60
2017-12-20T07:10:53.476Z,7.87
2017-12-20T07:13:21.754Z,7.57
2017-12-20T07:15:49.971Z,7.77
2017-12-20T07:18:18.235Z,7.70
2017-12-20T07:20:46.483Z,7.03
2017-12-20T07:23:14.720Z,7.50
2017-12-20T07:25:42.979Z,7.37
2017-12-20T07:28:11.226Z,7.00
2017-12-20T07:30:40.242Z,6.67
2017-12-20T07:33:08.490Z,5.60
2017-12-20T07:35:36.762Z,6.60
2017-12-20T07:38:05.023Z,6.83
2017-12-20T07:40:33.290Z,7.73
2017-12-20T07:43:01.548Z,5.87
2017-12-20T07:45:30.552Z,6.33
2017-12-20T07:47:58.773Z,7.13
2017-12-20T07:50:27.009Z,5.50
2017-12-20T07:52:55.270Z,7.00
2017-12-20T07:55:23.522Z,5.43
2017-12-20T07:57:51.778Z,6.60
2017-12-20T08:00:20.006Z,8.00
2017-12-20T08:02:48.264Z,7.03
2017-12-20T08:05:17.295Z,7.90
2017-12-20T08:07:45.536Z,7.60
2017-12-20T08:10:14.664Z,7.30
2017-12-20T08:12:42.918Z,5.47
2017-12-20T08:15:11.205Z,6.60
2017-12-20T08:17:39.458Z,7.67
2017-12-20T08:20:07.723Z,6.60
2017-12-20T08:22:36.785Z,7.37
2017-12-20T08:25:04.986Z,6.67
2017-12-20T08:27:34.075Z,7.13
2017-12-20T08:30:02.338Z,7.10
2017-12-20T08:32:30.582Z,7.00
2017-12-20T08:34:58.826Z,8.17
2017-12-20T08:37:27.089Z,6.50
2017-12-20T08:39:55.326Z,7.47
2017-12-20T08:42:23.562Z,7.57
2017-12-20T08:44:51.855Z,6.93
2017-12-20T08:47:20.083Z,7.17
2017-12-20T08:49:48.372Z,9.17
2017-12-20T08:52:17.408Z,6.90
2017-12-20T08:54:45.666Z,6.63
2017-12-20T08:57:14.689Z,7.60
2017-12-20T08:59:42.955Z,8.20
2017-12-20T09:02:11.231Z,8.60
2017-12-20T09:04:39.458Z,5.93
2017-12-20T09:07:07.739Z,6.90
2017-12-20T09:09:36.038Z,5.47
2017-12-20T09:12:05.051Z,5.63
2017-12-20T09:14:33.317Z,7.13
2017-12-20T09:17:02.331Z,5.93
2017-12-20T09:19:30.603Z,7.30
2017-12-20T09:21:59.606Z,6.80
2017-12-20T09:24:27.856Z,6.40
2017-12-20T09:26:56.194Z,8.23
2017-12-20T09:29:24.449Z,6.60
2017-12-20T09:31:52.703Z,10.10
2017-12-20T09:34:20.955Z,7.50
2017-12-20T09:36:49.203Z,7.60
2017-12-20T09:39:17.483Z,8.00
2017-12-20T09:41:46.146Z,8.20
2017-12-20T09:44:14.406Z,6.80
2017-12-20T09:46:42.675Z,6.20
2017-12-20T09:49:11.676Z,6.83
2017-12-20T09:51:39.948Z,7.60
2017-12-20T09:54:08.211Z,7.40
2017-12-20T09:56:37.224Z,9.83
2017-12-20T09:59:05.496Z,8.50
2017-12-20T10:01:33.768Z,7.70
2017-12-20T10:04:02.840Z,6.70
2017-12-20T10:06:31.097Z,10.20
2017-12-20T10:08:59.368Z,10.50
2017-12-20T10:11:27.614Z,8.53
2017-12-20T10:13:55.838Z,6.30
2017-12-20T10:16:24.902Z,8.50
2017-12-20T10:18:53.163Z,8.60
2017-12-20T10:21:22.175Z,8.67
2017-12-20T10:23:50.451Z,8.60
2017-12-20T10:26:18.755Z,8.90
2017-12-20T10:28:46.984Z,8.43
2017-12-20T10:31:15.287Z,7.60
2017-12-20T10:33:43.509Z,9.70
2017-12-20T10:36:11.834Z,8.87
2017-12-20T10:38:40.831Z,9.03
2017-12-20T10:41:09.076Z,8.00
2017-12-20T10:43:38.095Z,7.23
2017-12-20T10:46:06.352Z,8.40
2017-12-20T10:48:35.371Z,9.37
2017-12-20T10:51:04.662Z,8.77
2017-12-20T10:53:33.765Z,10.43
2017-12-20T10:56:02.034Z,7.63
2017-12-20T10:58:30.312Z,10.20
2017-12-20T11:00:59.323Z,9.43
2017-12-20T11:03:27.594Z,9.30
2017-12-20T11:05:55.845Z,10.50
2017-12-20T11:08:24.869Z,10.70
2017-12-20T11:10:53.168Z,13.30
2017-12-20T11:13:21.408Z,10.33
2017-12-20T11:15:49.681Z,12.17
2017-12-20T11:18:17.924Z,9.83
2017-12-20T11:20:46.185Z,8.53
2017-12-20T11:23:14.436Z,9.27
2017-12-20T11:25:42.753Z,9.67
2017-12-20T11:28:11.001Z,9.97
2017-12-20T11:30:39.285Z,11.13
2017-12-20T11:33:07.624Z,10.80
2017-12-20T11:35:35.867Z,10.50
2017-12-20T11:38:04.175Z,10.23
2017-12-20T11:40:32.442Z,11.73
2017-12-20T11:43:00.712Z,10.43
2017-12-20T11:45:29.750Z,13.67
2017-12-20T11:47:58.009Z,11.93
2017-12-20T11:50:26.266Z,13.17
2017-12-20T11:52:54.563Z,11.00
2017-12-20T11:55:23.629Z,11.40
2017-12-20T11:57:51.912Z,12.40
2017-12-20T12:00:20.149Z,12.20
2017-12-20T12:02:48.564Z,12.83
2017-12-20T12:05:16.879Z,12.70
2017-12-20T12:07:45.128Z,13.67
2017-12-20T12:10:14.163Z,12.57
2017-12-20T12:12:42.402Z,13.60
2017-12-20T12:15:11.428Z,13.20
2017-12-20T12:17:39.696Z,13.40
2017-12-20T12:20:07.943Z,13.93
2017-12-20T12:22:36.977Z,13.63
2017-12-20T12:25:05.294Z,13.53
2017-12-20T12:27:33.534Z,13.90
2017-12-20T12:30:01.834Z,15.00
2017-12-20T12:32:30.091Z,14.27
2017-12-20T12:34:58.333Z,14.50
2017-12-20T12:37:26.622Z,15.40
2017-12-20T12:39:54.941Z,18.00
2017-12-20T12:42:23.212Z,16.53
2017-12-20T12:44:51.737Z,16.60
2017-12-20T12:47:20.792Z,16.30
2017-12-20T12:49:49.064Z,17.50
2017-12-20T12:52:17.343Z,16.47
2017-12-20T12:54:45.623Z,22.10
2017-12-20T12:57:13.895Z,18.43
2017-12-20T12:59:42.190Z,16.77
2017-12-20T13:02:10.458Z,17.00
2017-12-20T13:04:38.718Z,16.83
2017-12-20T13:07:06.973Z,17.67
2017-12-20T13:09:35.273Z,16.87
2017-12-20T13:12:03.537Z,17.47
2017-12-20T13:14:31.842Z,17.67
2017-12-20T13:17:00.094Z,16.90
2017-12-20T13:19:28.355Z,18.23
2017-12-20T13:21:57.457Z,19.50
2017-12-20T13:24:26.470Z,16.63
2017-12-20T13:26:54.753Z,17.80
2017-12-20T13:29:23.001Z,19.03
2017-12-20T13:31:52.029Z,18.43
2017-12-20T13:34:20.261Z,17.30
2017-12-20T13:36:48.511Z,16.77
2017-12-20T13:39:16.874Z,16.13
2017-12-20T13:41:45.158Z,15.43
2017-12-20T13:44:13.431Z,15.93
2017-12-20T13:46:41.692Z,17.20
2017-12-20T13:49:10.843Z,16.17
2017-12-20T13:51:39.142Z,13.17
2017-12-20T13:54:08.179Z,14.10
2017-12-20T13:56:36.433Z,16.57
2017-12-20T13:59:04.748Z,16.00
2017-12-20T14:01:32.990Z,15.13
2017-12-20T14:04:01.253Z,13.03
2017-12-20T14:06:29.527Z,14.23
2017-12-20T14:08:58.589Z,14.83
2017-12-20T14:11:26.884Z,15.50
2017-12-20T14:13:55.152Z,16.03
2017-12-20T14:16:23.417Z,14.10
2017-12-20T14:18:51.683Z,14.00
2017-12-20T14:21:19.938Z,15.60
2017-12-20T14:23:48.245Z,16.10
2017-12-20T14:26:16.512Z,13.67
2017-12-20T14:28:44.787Z,16.37
2017-12-20T14:31:13.023Z,16.73
2017-12-20T14:33:42.099Z,14.93
2017-12-20T14:36:11.126Z,16.80
2017-12-20T14:38:39.404Z,18.90
2017-12-20T14:41:08.432Z,16.63
2017-12-20T14:43:36.666Z,14.00
2017-12-20T14:46:04.941Z,11.90
2017-12-20T14:48:33.228Z,10.90
2017-12-20T14:51:01.590Z,11.67
2017-12-20T14:53:29.858Z,14.63
2017-12-20T14:55:58.895Z,13.03
2017-12-20T14:58:27.177Z,25.30
2017-12-20T15:00:55.473Z,15.47
2017-12-20T15:03:23.704Z,13.33
2017-12-20T15:05:51.977Z,16.33
2017-12-20T15:08:20.251Z,13.20
2017-12-20T15:10:49.279Z,14.20
2017-12-20T15:13:17.571Z,13.23
2017-12-20T15:15:45.860Z,13.50
2017-12-20T15:18:14.127Z,13.67
2017-12-20T15:20:42.427Z,13.67
2017-12-20T15:23:10.698Z,12.90
2017-12-20T15:25:38.933Z,13.63
2017-12-20T15:28:07.231Z,12.13
2017-12-20T15:30:35.489Z,12.90
2017-12-20T15:33:03.795Z,14.37
2017-12-20T15:35:32.114Z,12.63
2017-12-20T15:38:01.195Z,13.47
2017-12-20T15:40:29.463Z,10.57
2017-12-20T15:42:57.746Z,10.83
2017-12-20T15:45:26.246Z,11.90
2017-12-20T15:47:54.521Z,12.10
2017-12-20T15:50:22.829Z,10.60
2017-12-20T15:52:51.956Z,10.67
2017-12-20T15:55:20.289Z,10.40
2017-12-20T15:57:49.323Z,8.80
2017-12-20T16:00:17.538Z,10.63
2017-12-20T16:02:45.884Z,10.60
2017-12-20T16:05:14.170Z,10.30
2017-12-20T16:07:42.478Z,13.37
2017-12-20T16:10:10.752Z,13.20
2017-12-20T16:12:39.094Z,12.90
2017-12-20T16:15:07.353Z,11.93
2017-12-20T16:17:35.603Z,11.87
2017-12-20T16:20:03.926Z,17.23
2017-12-20T16:22:32.246Z,28.20
2017-12-20T16:25:00.553Z,45.10
2017-12-20T16:27:28.862Z,16.03
2017-12-20T16:29:58.043Z,12.00
2017-12-20T16:32:26.318Z,13.10
2017-12-20T16:34:54.606Z,16.20
2017-12-20T16:37:22.900Z,12.70
2017-12-20T16:39:51.129Z,10.10
2017-12-20T16:42:20.184Z,10.63
2017-12-20T16:44:48.474Z,12.43
2017-12-20T16:47:17.550Z,10.90
2017-12-20T16:49:45.807Z,11.30
2017-12-20T16:52:14.078Z,11.83
2017-12-20T16:54:42.381Z,11.77
2017-12-20T16:57:10.716Z,11.30
2017-12-20T16:59:38.970Z,12.27
2017-12-20T17:02:08.021Z,12.60
2017-12-20T17:04:36.277Z,13.50
2017-12-20T17:07:04.571Z,15.20
2017-12-20T17:09:33.814Z,13.90
2017-12-20T17:12:02.155Z,13.30
2017-12-20T17:14:30.529Z,13.57
2017-12-20T17:16:58.885Z,16.83
2017-12-20T17:19:27.945Z,16.97
2017-12-20T17:21:56.183Z,16.03
2017-12-20T17:24:24.467Z,17.00
2017-12-20T17:26:52.753Z,16.00
2017-12-20T17:29:21.058Z,14.37
2017-12-20T17:31:49.298Z,19.70
2017-12-20T17:34:17.568Z,17.50
2017-12-20T17:36:45.894Z,18.53
2017-12-20T17:39:14.239Z,17.03
2017-12-20T17:41:42.555Z,24.37
2017-12-20T17:44:10.819Z,22.03
2017-12-20T17:46:39.512Z,23.13
2017-12-20T17:49:08.569Z,26.70
2017-12-20T17:51:36.824Z,18.40
2017-12-20T17:54:05.154Z,16.47
2017-12-20T17:56:33.476Z,18.10
2017-12-20T17:59:01.815Z,16.60
2017-12-20T18:01:30.084Z,14.10
2017-12-20T18:03:59.178Z,15.60
2017-12-20T18:06:27.459Z,15.60
2017-12-20T18:08:56.593Z,16.93
2017-12-20T18:11:25.630Z,16.27
2017-12-20T18:13:53.915Z,15.77
2017-12-20T18:16:22.298Z,15.97
2017-12-20T18:18:50.533Z,15.23
2017-12-20T18:21:18.852Z,18.00
2017-12-20T18:23:47.124Z,16.73
2017-12-20T18:26:15.435Z,17.37
2017-12-20T18:28:43.667Z,18.03
2017-12-20T18:31:13.291Z,16.00
2017-12-20T18:33:41.623Z,16.13
2017-12-20T18:36:10.691Z,16.70
2017-12-20T18:38:39.775Z,16.03
2017-12-20T18:41:08.084Z,15.97
2017-12-20T18:43:36.437Z,17.53
2017-12-20T18:46:05.047Z,16.33
2017-12-20T18:48:33.332Z,16.40
2017-12-20T18:51:01.806Z,17.13
2017-12-20T18:53:30.832Z,19.20
2017-12-20T18:55:59.184Z,17.20
2017-12-20T18:58:28.216Z,19.50
2017-12-20T19:00:56.684Z,19.73
2017-12-20T19:03:25.145Z,16.67
2017-12-20T19:05:54.995Z,16.90
2017-12-20T19:08:23.290Z,18.60
2017-12-20T19:10:51.611Z,17.27
2017-12-20T19:13:19.915Z,19.00
2017-12-20T19:15:48.303Z,19.73
2017-12-20T19:18:16.606Z,21.43
2017-12-20T19:20:45.760Z,22.90
2017-12-20T19:23:14.836Z,18.20
2017-12-20T19:25:43.966Z,19.30
2017-12-20T19:28:13.073Z,21.00
2017-12-20T19:30:41.425Z,21.87
2017-12-20T19:33:10.519Z,21.00
2017-12-20T19:35:39.587Z,23.67
2017-12-20T19:38:08.646Z,23.90
2017-12-20T19:40:36.969Z,19.60
2017-12-20T19:43:05.268Z,23.10
2017-12-20T19:45:33.644Z,23.80
2017-12-20T19:48:02.105Z,22.53
2017-12-20T19:50:30.399Z,24.13
2017-12-20T19:53:00.137Z,23.70
2017-12-20T19:55:28.428Z,21.33
2017-12-20T19:57:57.076Z,20.73
2017-12-20T20:00:25.361Z,21.90
2017-12-20T20:02:54.743Z,22.70
2017-12-20T20:05:24.150Z,23.03
2017-12-20T20:07:53.498Z,20.40
2017-12-20T20:10:21.764Z,23.90
2017-12-20T20:12:50.043Z,22.17
2017-12-20T20:15:18.703Z,21.37
2017-12-20T20:17:47.274Z,20.43
2017-12-20T20:20:17.120Z,21.10
2017-12-20T20:22:48.557Z,21.00
2017-12-20T20:25:17.077Z,18.83
2017-12-20T20:27:45.370Z,22.10
2017-12-20T20:30:15.012Z,20.40
2017-12-20T20:32:44.526Z,20.27
2017-12-20T20:35:12.860Z,22.37
2017-12-20T20:37:41.494Z,20.47
2017-12-20T20:40:10.086Z,21.60
2017-12-20T20:42:39.184Z,19.83
2017-12-20T20:45:08.781Z,22.90
2017-12-20T20:47:37.113Z,20.43
2017-12-20T20:50:05.748Z,19.70
2017-12-20T20:52:34.137Z,20.83
2017-12-20T20:55:02.706Z,20.50
2017-12-20T20:57:32.707Z,21.27
2017-12-20T21:00:01.107Z,23.70
2017-12-20T21:02:29.528Z,25.30
2017-12-20T21:04:58.692Z,22.97
2017-12-20T21:07:27.264Z,20.27
2017-12-20T21:09:56.326Z,19.73
2017-12-20T21:12:24.674Z,19.47
2017-12-20T21:14:52.943Z,19.83
2017-12-20T21:17:21.264Z,19.37
2017-12-20T21:19:49.588Z,19.30
2017-12-20T21:22:19.089Z,18.33
2017-12-20T21:24:47.793Z,16.10
2017-12-20T21:27:16.094Z,17.83
2017-12-20T21:29:44.351Z,17.43
2017-12-20T21:32:12.664Z,16.43
2017-12-20T21:34:40.914Z,18.00
2017-12-20T21:37:09.196Z,17.07
2017-12-20T21:39:37.500Z,20.73
2017-12-20T21:42:06.262Z,19.33
2017-12-20T21:44:34.608Z,20.60
2017-12-20T21:47:02.851Z,20.57
2017-12-20T21:49:31.139Z,19.20
2017-12-20T21:51:59.434Z,20.17
2017-12-20T21:54:27.707Z,23.10
2017-12-20T21:56:55.998Z,18.80
2017-12-20T21:59:25.437Z,18.80
2017-12-20T22:01:53.707Z,17.73
2017-12-20T22:04:22.039Z,18.70
2017-12-20T22:06:50.316Z,19.70
2017-12-20T22:09:18.613Z,18.63
2017-12-20T22:11:46.893Z,18.37
2017-12-20T22:14:15.921Z,17.30
2017-12-20T22:16:44.192Z,17.23
2017-12-20T22:19:12.485Z,18.57
2017-12-20T22:21:40.724Z,17.97
2017-12-20T22:24:09.769Z,18.33
2017-12-20T22:26:38.007Z,20.30
2017-12-20T22:29:07.050Z,21.50
2017-12-20T22:31:35.370Z,19.50
2017-12-20T22:34:03.603Z,19.33
2017-12-20T22:36:31.927Z,18.07
2017-12-20T22:39:00.143Z,19.80
2017-12-20T22:41:28.458Z,20.20
2017-12-20T22:43:57.179Z,17.20
2017-12-20T22:46:25.459Z,18.97
2017-12-20T22:48:53.723Z,16.13
2017-12-20T22:51:22.758Z,16.73
2017-12-20T22:53:51.022Z,16.47
2017-12-20T22:56:19.274Z,17.07
2017-12-20T22:58:48.315Z,17.10
2017-12-20T23:01:16.817Z,18.33
2017-12-20T23:03:45.052Z,17.57
2017-12-20T23:06:13.360Z,19.33
2017-12-20T23:08:41.637Z,18.80
2017-12-20T23:11:09.918Z,19.30
2017-12-20T23:13:38.203Z,20.20
2017-12-20T23:16:06.484Z,16.63
2017-12-20T23:18:34.716Z,18.17
2017-12-20T23:21:02.949Z,18.80
2017-12-20T23:23:31.213Z,17.93
2017-12-20T23:25:59.475Z,19.03
2017-12-20T23:28:28.043Z,19.10
2017-12-20T23:30:56.281Z,16.93
2017-12-20T23:33:25.318Z,17.00
2017-12-20T23:35:53.625Z,15.60
2017-12-20T23:38:21.899Z,16.27
2017-12-20T23:40:50.149Z,15.60
2017-12-20T23:43:18.424Z,16.80
2017-12-20T23:45:46.703Z,17.90
2017-12-20T23:48:15.006Z,15.80
2017-12-20T23:50:43.284Z,16.00
2017-12-20T23:53:11.584Z,18.97
2017-12-20T23:55:39.863Z,18.30
2017-12-20T23:58:08.110Z,18.53
